sensor_id;sensor_type;location;lat;lon;timestamp;pressure;altitude;pressure_sealevel;temperature;humidity
62164;BME280;48149;51.132;7.178;2023-02-01T00:00:59;99009.59;;;20.48;42.46
62164;BME280;48149;51.132;7.178;2023-02-01T00:03:24;99021.75;;;19.99;45.41
62164;BME280;48149;51.132;7.178;2023-02-01T00:05:54;99036.28;;;19.61;44.80
62164;BME280;48149;51.132;7.178;2023-02-01T00:08:20;99014.28;;;19.03;44.65
62164;BME280;48149;51.132;7.178;2023-02-01T00:10:45;99016.25;;;20.41;44.09
62164;BME280;48149;51.132;7.178;2023-02-01T00:13:10;99012.94;;;21.68;40.68
62164;BME280;48149;51.132;7.178;2023-02-01T00:15:35;99024.13;;;19.75;41.85
62164;BME280;48149;51.132;7.178;2023-02-01T00:18:00;99026.81;;;19.95;44.60
62164;BME280;48149;51.132;7.178;2023-02-01T00:20:26;99028.69;;;20.05;45.63
62164;BME280;48149;51.132;7.178;2023-02-01T00:22:51;99029.59;;;21.45;41.74
62164;BME280;48149;51.132;7.178;2023-02-01T00:25:16;99021.50;;;20.00;45.59
62164;BME280;48149;51.132;7.178;2023-02-01T00:27:41;99031.56;;;19.83;44.76
62164;BME280;48149;51.132;7.178;2023-02-01T00:30:07;99024.41;;;19.89;44.67
62164;BME280;48149;51.132;7.178;2023-02-01T00:32:32;99017.25;;;19.79;44.13
62164;BME280;48149;51.132;7.178;2023-02-01T00:34:57;99008.47;;;21.59;43.82
62164;BME280;48149;51.132;7.178;2023-02-01T00:37:22;99002.38;;;21.97;41.71
62164;BME280;48149;51.132;7.178;2023-02-01T00:39:48;99005.47;;;21.06;41.58
62164;BME280;48149;51.132;7.178;2023-02-01T00:42:14;99011.41;;;20.73;41.67
62164;BME280;48149;51.132;7.178;2023-02-01T00:44:39;99009.81;;;19.96;45.34
62164;BME280;48149;51.132;7.178;2023-02-01T00:47:05;99010.44;;;21.87;41.49
62164;BME280;48149;51.132;7.178;2023-02-01T00:49:30;99019.16;;;20.34;43.72
62164;BME280;48149;51.132;7.178;2023-02-01T00:51:55;99011.53;;;19.40;43.19
62164;BME280;48149;51.132;7.178;2023-02-01T00:54:20;99005.75;;;21.00;41.38
62164;BME280;48149;51.132;7.178;2023-02-01T00:56:45;99008.06;;;22.24;40.70
62164;BME280;48149;51.132;7.178;2023-02-01T00:59:11;98995.47;;;19.97;43.65
62164;BME280;48149;51.132;7.178;2023-02-01T01:01:38;98985.63;;;21.48;42.15
62164;BME280;48149;51.132;7.178;2023-02-01T01:04:03;98984.88;;;20.28;42.73
62164;BME280;48149;51.132;7.178;2023-02-01T01:06:30;98960.88;;;20.73;41.04
62164;BME280;48149;51.132;7.178;2023-02-01T01:08:56;98959.47;;;21.55;41.86
62164;BME280;48149;51.132;7.178;2023-02-01T01:11:22;98956.09;;;20.65;43.60
62164;BME280;48149;51.132;7.178;2023-02-01T01:13:48;98961.91;;;20.77;42.48
62164;BME280;48149;51.132;7.178;2023-02-01T01:16:14;98976.84;;;19.72;44.04
62164;BME280;48149;51.132;7.178;2023-02-01T01:18:39;98966.69;;;20.85;42.29
62164;BME280;48149;51.132;7.178;2023-02-01T01:21:05;98982.44;;;20.46;43.49
62164;BME280;48149;51.132;7.178;2023-02-01T01:23:31;98986.91;;;20.86;42.71
62164;BME280;48149;51.132;7.178;2023-02-01T01:25:56;98995.47;;;19.82;44.11
62164;BME280;48149;51.132;7.178;2023-02-01T01:28:21;98988.94;;;21.19;41.74
62164;BME280;48149;51.132;7.178;2023-02-01T01:30:46;99007.13;;;21.56;40.66
62164;BME280;48149;51.132;7.178;2023-02-01T01:33:12;99006.47;;;22.52;36.97
62164;BME280;48149;51.132;7.178;2023-02-01T01:35:37;98991.50;;;20.40;40.78
62164;BME280;48149;51.132;7.178;2023-02-01T01:38:02;99002.63;;;19.09;42.10
62164;BME280;48149;51.132;7.178;2023-02-01T01:40:28;98999.81;;;18.79;43.12
62164;BME280;48149;51.132;7.178;2023-02-01T01:42:53;98991.22;;;20.57;40.70
62164;BME280;48149;51.132;7.178;2023-02-01T01:47:46;99010.59;;;20.83;37.89
62164;BME280;48149;51.132;7.178;2023-02-01T01:50:14;99001.66;;;19.26;40.92
62164;BME280;48149;51.132;7.178;2023-02-01T01:52:41;99002.41;;;20.44;39.92
62164;BME280;48149;51.132;7.178;2023-02-01T01:55:08;99001.59;;;21.48;38.31
62164;BME280;48149;51.132;7.178;2023-02-01T01:57:38;99007.69;;;19.93;40.12
62164;BME280;48149;51.132;7.178;2023-02-01T02:00:12;98993.00;;;19.60;40.83
62164;BME280;48149;51.132;7.178;2023-02-01T02:02:38;98992.78;;;19.72;38.43
62164;BME280;48149;51.132;7.178;2023-02-01T02:05:04;98985.50;;;18.80;39.31
62164;BME280;48149;51.132;7.178;2023-02-01T02:07:30;98983.88;;;18.37;41.28
62164;BME280;48149;51.132;7.178;2023-02-01T02:09:57;98987.47;;;19.00;40.09
62164;BME280;48149;51.132;7.178;2023-02-01T02:12:22;98978.44;;;18.54;41.29
62164;BME280;48149;51.132;7.178;2023-02-01T02:14:47;98989.41;;;18.68;40.69
62164;BME280;48149;51.132;7.178;2023-02-01T02:30:27;98977.88;;;19.76;37.80
62164;BME280;48149;51.132;7.178;2023-02-01T02:38:13;98960.94;;;19.00;38.91
62164;BME280;48149;51.132;7.178;2023-02-01T02:40:42;98968.59;;;19.68;38.17
62164;BME280;48149;51.132;7.178;2023-02-01T02:43:11;98969.91;;;19.61;37.85
62164;BME280;48149;51.132;7.178;2023-02-01T02:46:09;98965.00;;;19.33;39.21
62164;BME280;48149;51.132;7.178;2023-02-01T02:49:05;98973.81;;;19.38;38.99
62164;BME280;48149;51.132;7.178;2023-02-01T02:51:35;98949.94;;;18.76;38.18
62164;BME280;48149;51.132;7.178;2023-02-01T02:54:23;98950.94;;;20.94;36.88
62164;BME280;48149;51.132;7.178;2023-02-01T02:57:08;98947.63;;;19.92;38.25
62164;BME280;48149;51.132;7.178;2023-02-01T02:59:54;98948.16;;;19.69;38.41
62164;BME280;48149;51.132;7.178;2023-02-01T03:02:39;98943.09;;;19.83;37.30
62164;BME280;48149;51.132;7.178;2023-02-01T03:05:23;98944.38;;;19.40;38.96
62164;BME280;48149;51.132;7.178;2023-02-01T03:07:50;98944.34;;;19.35;39.47
62164;BME280;48149;51.132;7.178;2023-02-01T03:12:52;98944.25;;;19.09;39.71
62164;BME280;48149;51.132;7.178;2023-02-01T03:15:22;98947.56;;;19.47;38.89
62164;BME280;48149;51.132;7.178;2023-02-01T03:17:48;98944.72;;;18.96;38.33
62164;BME280;48149;51.132;7.178;2023-02-01T03:20:15;98941.44;;;18.79;39.30
62164;BME280;48149;51.132;7.178;2023-02-01T03:22:44;98942.91;;;21.04;37.90
62164;BME280;48149;51.132;7.178;2023-02-01T03:25:13;98939.06;;;19.55;37.29
62164;BME280;48149;51.132;7.178;2023-02-01T03:27:47;98931.94;;;19.96;38.73
62164;BME280;48149;51.132;7.178;2023-02-01T03:30:16;98934.06;;;19.74;38.02
62164;BME280;48149;51.132;7.178;2023-02-01T03:32:43;98941.09;;;19.17;40.06
62164;BME280;48149;51.132;7.178;2023-02-01T03:35:40;98937.09;;;18.58;39.26
62164;BME280;48149;51.132;7.178;2023-02-01T03:38:21;98946.41;;;19.17;40.38
62164;BME280;48149;51.132;7.178;2023-02-01T03:40:52;98935.13;;;19.93;38.40
62164;BME280;48149;51.132;7.178;2023-02-01T03:43:19;98938.66;;;19.11;39.52
62164;BME280;48149;51.132;7.178;2023-02-01T03:45:48;98929.97;;;19.36;40.30
62164;BME280;48149;51.132;7.178;2023-02-01T03:48:14;98921.78;;;18.28;40.98
62164;BME280;48149;51.132;7.178;2023-02-01T03:50:43;98913.31;;;18.73;39.76
62164;BME280;48149;51.132;7.178;2023-02-01T03:53:12;98929.81;;;19.73;40.54
62164;BME280;48149;51.132;7.178;2023-02-01T03:55:39;98922.38;;;19.80;39.53
62164;BME280;48149;51.132;7.178;2023-02-01T03:58:07;98924.97;;;17.40;42.96
62164;BME280;48149;51.132;7.178;2023-02-01T04:00:33;98913.59;;;19.74;40.37
62164;BME280;48149;51.132;7.178;2023-02-01T04:02:58;98916.47;;;18.65;40.24
62164;BME280;48149;51.132;7.178;2023-02-01T04:05:24;98914.34;;;18.67;40.96
62164;BME280;48149;51.132;7.178;2023-02-01T04:07:49;98940.28;;;18.18;42.34
62164;BME280;48149;51.132;7.178;2023-02-01T04:10:15;98928.78;;;18.91;41.90
62164;BME280;48149;51.132;7.178;2023-02-01T04:12:40;98932.06;;;19.24;40.11
62164;BME280;48149;51.132;7.178;2023-02-01T04:15:05;98928.94;;;18.64;41.74
62164;BME280;48149;51.132;7.178;2023-02-01T04:17:31;98921.50;;;19.39;40.91
62164;BME280;48149;51.132;7.178;2023-02-01T04:19:56;98914.25;;;19.09;41.31
62164;BME280;48149;51.132;7.178;2023-02-01T04:22:21;98907.53;;;18.81;41.35
62164;BME280;48149;51.132;7.178;2023-02-01T04:24:47;98914.00;;;18.53;41.20
62164;BME280;48149;51.132;7.178;2023-02-01T04:27:12;98908.16;;;18.51;41.67
62164;BME280;48149;51.132;7.178;2023-02-01T04:29:38;98914.72;;;17.70;40.77
62164;BME280;48149;51.132;7.178;2023-02-01T04:32:03;98891.66;;;18.96;40.80
62164;BME280;48149;51.132;7.178;2023-02-01T04:34:29;98872.53;;;17.95;42.81
62164;BME280;48149;51.132;7.178;2023-02-01T04:36:54;98867.78;;;18.44;43.51
62164;BME280;48149;51.132;7.178;2023-02-01T04:39:19;98874.34;;;18.27;42.05
62164;BME280;48149;51.132;7.178;2023-02-01T04:41:45;98873.69;;;18.09;43.34
62164;BME280;48149;51.132;7.178;2023-02-01T04:44:14;98881.31;;;18.95;40.83
62164;BME280;48149;51.132;7.178;2023-02-01T04:46:39;98888.19;;;18.44;41.02
62164;BME280;48149;51.132;7.178;2023-02-01T04:49:04;98891.34;;;18.83;40.77
62164;BME280;48149;51.132;7.178;2023-02-01T04:51:30;98894.50;;;19.57;40.16
62164;BME280;48149;51.132;7.178;2023-02-01T04:53:55;98887.22;;;18.50;39.71
62164;BME280;48149;51.132;7.178;2023-02-01T04:56:20;98888.88;;;18.61;41.48
62164;BME280;48149;51.132;7.178;2023-02-01T04:58:46;98881.44;;;18.58;41.09
62164;BME280;48149;51.132;7.178;2023-02-01T05:01:11;98888.00;;;17.50;41.52
62164;BME280;48149;51.132;7.178;2023-02-01T05:03:36;98897.38;;;18.68;41.85
62164;BME280;48149;51.132;7.178;2023-02-01T05:06:01;98888.63;;;17.84;41.50
62164;BME280;48149;51.132;7.178;2023-02-01T05:08:29;98892.00;;;18.11;42.66
62164;BME280;48149;51.132;7.178;2023-02-01T05:10:54;98907.69;;;19.32;40.43
62164;BME280;48149;51.132;7.178;2023-02-01T05:13:19;98901.72;;;18.37;40.55
62164;BME280;48149;51.132;7.178;2023-02-01T05:16:04;98903.34;;;19.00;41.68
62164;BME280;48149;51.132;7.178;2023-02-01T05:18:29;98893.88;;;18.16;41.97
62164;BME280;48149;51.132;7.178;2023-02-01T05:20:54;98907.41;;;19.33;39.47
62164;BME280;48149;51.132;7.178;2023-02-01T05:23:19;98904.38;;;18.42;40.56
62164;BME280;48149;51.132;7.178;2023-02-01T05:25:45;98909.53;;;18.59;41.09
62164;BME280;48149;51.132;7.178;2023-02-01T05:28:10;98893.66;;;18.69;40.25
62164;BME280;48149;51.132;7.178;2023-02-01T05:30:35;98901.44;;;18.86;39.92
62164;BME280;48149;51.132;7.178;2023-02-01T05:33:01;98902.94;;;18.67;42.70
62164;BME280;48149;51.132;7.178;2023-02-01T05:35:26;98914.53;;;17.28;41.35
62164;BME280;48149;51.132;7.178;2023-02-01T05:37:51;98906.53;;;19.07;41.37
62164;BME280;48149;51.132;7.178;2023-02-01T05:40:16;98905.22;;;17.74;42.61
62164;BME280;48149;51.132;7.178;2023-02-01T05:42:42;98900.19;;;19.08;41.43
62164;BME280;48149;51.132;7.178;2023-02-01T05:45:07;98910.56;;;19.20;39.59
62164;BME280;48149;51.132;7.178;2023-02-01T05:47:32;98909.09;;;18.77;40.17
62164;BME280;48149;51.132;7.178;2023-02-01T05:49:58;98907.41;;;18.61;39.66
62164;BME280;48149;51.132;7.178;2023-02-01T05:52:23;98905.66;;;17.98;40.86
62164;BME280;48149;51.132;7.178;2023-02-01T05:54:48;98901.78;;;16.98;42.68
62164;BME280;48149;51.132;7.178;2023-02-01T05:57:14;98903.63;;;16.98;44.40
62164;BME280;48149;51.132;7.178;2023-02-01T05:59:39;98906.16;;;18.32;42.76
62164;BME280;48149;51.132;7.178;2023-02-01T06:02:09;98900.84;;;18.69;41.66
62164;BME280;48149;51.132;7.178;2023-02-01T06:04:35;98900.06;;;18.73;40.29
62164;BME280;48149;51.132;7.178;2023-02-01T06:07:00;98902.28;;;18.02;41.58
62164;BME280;48149;51.132;7.178;2023-02-01T06:09:25;98897.69;;;17.13;43.21
62164;BME280;48149;51.132;7.178;2023-02-01T06:11:50;98887.38;;;18.33;42.97
62164;BME280;48149;51.132;7.178;2023-02-01T06:14:16;98884.19;;;18.78;41.29
62164;BME280;48149;51.132;7.178;2023-02-01T06:16:41;98882.00;;;18.23;44.25
62164;BME280;48149;51.132;7.178;2023-02-01T06:19:06;98876.44;;;17.56;42.92
62164;BME280;48149;51.132;7.178;2023-02-01T06:21:31;98881.19;;;17.27;43.86
62164;BME280;48149;51.132;7.178;2023-02-01T06:23:58;98913.66;;;17.44;43.49
62164;BME280;48149;51.132;7.178;2023-02-01T06:26:23;98893.25;;;18.40;42.15
62164;BME280;48149;51.132;7.178;2023-02-01T06:28:49;98891.38;;;17.99;42.60
62164;BME280;48149;51.132;7.178;2023-02-01T06:31:14;98905.44;;;18.41;41.10
62164;BME280;48149;51.132;7.178;2023-02-01T06:33:40;98914.97;;;18.37;43.33
62164;BME280;48149;51.132;7.178;2023-02-01T06:36:06;98914.63;;;17.60;44.53
62164;BME280;48149;51.132;7.178;2023-02-01T06:38:32;98916.69;;;19.36;40.08
62164;BME280;48149;51.132;7.178;2023-02-01T06:40:59;98903.25;;;18.33;41.74
62164;BME280;48149;51.132;7.178;2023-02-01T06:43:25;98906.72;;;19.93;39.71
62164;BME280;48149;51.132;7.178;2023-02-01T06:45:51;98896.81;;;17.82;42.35
62164;BME280;48149;51.132;7.178;2023-02-01T06:48:17;98909.44;;;18.07;42.40
62164;BME280;48149;51.132;7.178;2023-02-01T06:50:42;98921.31;;;18.83;40.23
62164;BME280;48149;51.132;7.178;2023-02-01T06:53:07;98926.81;;;18.25;40.32
62164;BME280;48149;51.132;7.178;2023-02-01T06:55:33;98897.13;;;17.59;42.24
62164;BME280;48149;51.132;7.178;2023-02-01T06:57:58;98899.22;;;17.08;40.52
62164;BME280;48149;51.132;7.178;2023-02-01T07:00:23;98905.13;;;18.85;40.59
62164;BME280;48149;51.132;7.178;2023-02-01T07:02:49;98915.59;;;19.11;40.38
62164;BME280;48149;51.132;7.178;2023-02-01T07:05:14;98901.25;;;18.08;41.15
62164;BME280;48149;51.132;7.178;2023-02-01T07:07:40;98908.28;;;18.30;41.35
62164;BME280;48149;51.132;7.178;2023-02-01T07:10:05;98923.47;;;18.91;39.19
62164;BME280;48149;51.132;7.178;2023-02-01T07:12:30;98920.22;;;18.74;39.64
62164;BME280;48149;51.132;7.178;2023-02-01T07:14:55;98918.03;;;19.28;40.05
62164;BME280;48149;51.132;7.178;2023-02-01T07:17:21;98924.41;;;18.28;41.47
62164;BME280;48149;51.132;7.178;2023-02-01T07:19:46;98924.47;;;18.75;40.50
62164;BME280;48149;51.132;7.178;2023-02-01T07:22:12;98932.22;;;17.71;41.78
62164;BME280;48149;51.132;7.178;2023-02-01T07:24:37;98932.19;;;18.03;40.62
62164;BME280;48149;51.132;7.178;2023-02-01T07:27:02;98950.25;;;19.57;41.16
62164;BME280;48149;51.132;7.178;2023-02-01T07:29:27;98945.31;;;18.56;39.73
62164;BME280;48149;51.132;7.178;2023-02-01T07:31:53;98950.16;;;18.28;40.63
62164;BME280;48149;51.132;7.178;2023-02-01T07:34:18;98954.03;;;19.04;40.87
62164;BME280;48149;51.132;7.178;2023-02-01T07:36:43;98949.22;;;18.49;40.15
62164;BME280;48149;51.132;7.178;2023-02-01T07:39:08;98947.19;;;18.61;40.49
62164;BME280;48149;51.132;7.178;2023-02-01T07:41:37;98953.66;;;17.48;42.08
62164;BME280;48149;51.132;7.178;2023-02-01T07:44:02;98958.63;;;17.66;42.30
62164;BME280;48149;51.132;7.178;2023-02-01T07:46:27;98951.81;;;18.81;42.01
62164;BME280;48149;51.132;7.178;2023-02-01T07:48:52;98942.09;;;18.49;40.09
62164;BME280;48149;51.132;7.178;2023-02-01T07:51:18;98965.75;;;16.95;42.89
62164;BME280;48149;51.132;7.178;2023-02-01T07:53:43;98939.34;;;18.81;40.97
62164;BME280;48149;51.132;7.178;2023-02-01T07:56:10;98959.97;;;17.47;42.17
62164;BME280;48149;51.132;7.178;2023-02-01T07:58:35;98952.94;;;19.87;39.25
62164;BME280;48149;51.132;7.178;2023-02-01T08:01:00;98963.19;;;19.38;39.58
62164;BME280;48149;51.132;7.178;2023-02-01T08:03:44;98982.59;;;18.08;41.36
62164;BME280;48149;51.132;7.178;2023-02-01T08:06:10;98948.47;;;17.85;42.09
62164;BME280;48149;51.132;7.178;2023-02-01T08:08:35;98966.81;;;17.91;42.15
62164;BME280;48149;51.132;7.178;2023-02-01T08:11:01;98956.50;;;16.76;45.52
62164;BME280;48149;51.132;7.178;2023-02-01T08:13:26;98944.38;;;16.09;44.36
62164;BME280;48149;51.132;7.178;2023-02-01T08:15:52;98956.44;;;19.00;42.17
62164;BME280;48149;51.132;7.178;2023-02-01T08:18:17;98952.66;;;17.81;42.82
62164;BME280;48149;51.132;7.178;2023-02-01T08:20:43;98958.03;;;18.54;42.31
62164;BME280;48149;51.132;7.178;2023-02-01T08:23:10;98957.13;;;17.53;42.65
62164;BME280;48149;51.132;7.178;2023-02-01T08:25:35;98951.66;;;19.02;41.84
62164;BME280;48149;51.132;7.178;2023-02-01T08:28:01;98958.97;;;17.75;40.54
62164;BME280;48149;51.132;7.178;2023-02-01T08:30:26;98974.44;;;19.65;40.61
62164;BME280;48149;51.132;7.178;2023-02-01T08:32:52;98964.94;;;19.07;40.41
62164;BME280;48149;51.132;7.178;2023-02-01T08:35:17;98962.78;;;18.99;40.00
62164;BME280;48149;51.132;7.178;2023-02-01T08:37:43;98975.00;;;18.22;41.71
62164;BME280;48149;51.132;7.178;2023-02-01T08:40:09;98955.28;;;18.44;41.27
62164;BME280;48149;51.132;7.178;2023-02-01T08:42:36;98993.59;;;17.46;42.95
62164;BME280;48149;51.132;7.178;2023-02-01T08:45:17;98986.09;;;19.64;40.49
62164;BME280;48149;51.132;7.178;2023-02-01T08:47:44;98994.81;;;18.46;40.16
62164;BME280;48149;51.132;7.178;2023-02-01T08:50:09;98999.72;;;19.88;40.33
62164;BME280;48149;51.132;7.178;2023-02-01T08:52:35;99012.22;;;17.78;41.64
62164;BME280;48149;51.132;7.178;2023-02-01T08:55:00;99003.34;;;17.89;43.29
62164;BME280;48149;51.132;7.178;2023-02-01T08:57:25;98998.81;;;18.90;42.17
62164;BME280;48149;51.132;7.178;2023-02-01T08:59:50;99008.69;;;19.62;40.74
62164;BME280;48149;51.132;7.178;2023-02-01T09:02:16;99011.13;;;19.06;42.10
62164;BME280;48149;51.132;7.178;2023-02-01T09:04:42;99007.66;;;19.78;39.15
62164;BME280;48149;51.132;7.178;2023-02-01T09:07:07;99005.13;;;18.10;41.47
62164;BME280;48149;51.132;7.178;2023-02-01T09:09:33;99009.25;;;19.69;41.43
62164;BME280;48149;51.132;7.178;2023-02-01T09:11:58;98998.19;;;18.41;41.61
62164;BME280;48149;51.132;7.178;2023-02-01T09:14:23;98998.56;;;19.44;40.72
62164;BME280;48149;51.132;7.178;2023-02-01T09:16:49;98986.09;;;18.19;42.39
62164;BME280;48149;51.132;7.178;2023-02-01T09:19:14;98979.88;;;18.72;41.92
62164;BME280;48149;51.132;7.178;2023-02-01T09:21:39;98995.22;;;18.64;41.36
62164;BME280;48149;51.132;7.178;2023-02-01T09:24:04;98980.50;;;19.46;40.83
62164;BME280;48149;51.132;7.178;2023-02-01T09:26:30;98999.69;;;17.03;42.24
62164;BME280;48149;51.132;7.178;2023-02-01T09:28:55;98985.75;;;18.42;42.60
62164;BME280;48149;51.132;7.178;2023-02-01T09:31:20;98978.13;;;17.55;42.46
62164;BME280;48149;51.132;7.178;2023-02-01T09:33:45;98990.22;;;18.04;42.36
62164;BME280;48149;51.132;7.178;2023-02-01T09:36:11;98984.75;;;17.57;44.36
62164;BME280;48149;51.132;7.178;2023-02-01T09:38:36;98993.09;;;17.71;43.88
62164;BME280;48149;51.132;7.178;2023-02-01T09:41:06;98993.41;;;17.53;43.53
62164;BME280;48149;51.132;7.178;2023-02-01T09:48:40;98982.53;;;17.71;43.60
62164;BME280;48149;51.132;7.178;2023-02-01T09:51:28;98975.94;;;18.05;44.27
62164;BME280;48149;51.132;7.178;2023-02-01T09:56:35;98974.84;;;17.04;43.64
62164;BME280;48149;51.132;7.178;2023-02-01T09:59:15;98974.63;;;18.08;43.98
62164;BME280;48149;51.132;7.178;2023-02-01T10:01:47;98981.59;;;19.60;40.71
62164;BME280;48149;51.132;7.178;2023-02-01T10:04:13;98978.59;;;18.42;42.10
62164;BME280;48149;51.132;7.178;2023-02-01T10:19:20;98970.75;;;19.04;40.45
62164;BME280;48149;51.132;7.178;2023-02-01T10:21:59;98964.78;;;18.03;43.30
62164;BME280;48149;51.132;7.178;2023-02-01T10:27:01;98976.69;;;18.01;41.80
62164;BME280;48149;51.132;7.178;2023-02-01T10:29:29;98968.53;;;17.81;44.91
62164;BME280;48149;51.132;7.178;2023-02-01T10:31:57;98963.94;;;18.67;41.18
62164;BME280;48149;51.132;7.178;2023-02-01T10:34:26;98977.00;;;18.78;41.67
62164;BME280;48149;51.132;7.178;2023-02-01T10:36:54;98949.56;;;19.14;41.06
62164;BME280;48149;51.132;7.178;2023-02-01T10:39:20;98981.25;;;18.79;40.52
62164;BME280;48149;51.132;7.178;2023-02-01T10:41:46;98962.53;;;18.22;42.68
62164;BME280;48149;51.132;7.178;2023-02-01T10:44:12;98963.59;;;18.53;41.85
62164;BME280;48149;51.132;7.178;2023-02-01T10:46:39;98951.38;;;17.83;42.04
62164;BME280;48149;51.132;7.178;2023-02-01T10:49:04;98959.81;;;19.53;40.50
62164;BME280;48149;51.132;7.178;2023-02-01T10:54:22;98966.13;;;18.80;39.85
62164;BME280;48149;51.132;7.178;2023-02-01T10:56:56;98969.03;;;18.04;41.74
62164;BME280;48149;51.132;7.178;2023-02-01T10:59:23;98958.50;;;20.11;40.54
62164;BME280;48149;51.132;7.178;2023-02-01T11:01:49;98961.72;;;18.53;41.08
62164;BME280;48149;51.132;7.178;2023-02-01T11:04:18;98944.50;;;19.03;40.45
62164;BME280;48149;51.132;7.178;2023-02-01T11:06:45;98960.66;;;17.59;41.15
62164;BME280;48149;51.132;7.178;2023-02-01T11:09:19;98931.09;;;17.67;42.40
62164;BME280;48149;51.132;7.178;2023-02-01T11:14:13;98925.63;;;18.10;41.25
62164;BME280;48149;51.132;7.178;2023-02-01T11:16:39;98946.19;;;17.67;42.60
62164;BME280;48149;51.132;7.178;2023-02-01T11:19:05;98929.22;;;18.73;40.65
62164;BME280;48149;51.132;7.178;2023-02-01T11:21:32;98922.78;;;18.22;43.55
62164;BME280;48149;51.132;7.178;2023-02-01T11:24:03;98959.88;;;19.06;40.44
62164;BME280;48149;51.132;7.178;2023-02-01T11:26:30;98930.72;;;18.54;42.53
62164;BME280;48149;51.132;7.178;2023-02-01T11:29:04;98923.00;;;18.16;41.38
62164;BME280;48149;51.132;7.178;2023-02-01T11:31:30;98931.50;;;19.11;41.46
62164;BME280;48149;51.132;7.178;2023-02-01T11:33:58;98929.56;;;18.87;41.89
62164;BME280;48149;51.132;7.178;2023-02-01T11:36:26;98931.75;;;19.00;41.92
62164;BME280;48149;51.132;7.178;2023-02-01T11:38:53;98936.09;;;18.27;42.61
62164;BME280;48149;51.132;7.178;2023-02-01T11:43:54;98906.09;;;18.22;40.98
62164;BME280;48149;51.132;7.178;2023-02-01T11:46:21;98906.22;;;18.89;41.38
62164;BME280;48149;51.132;7.178;2023-02-01T11:48:50;98910.13;;;18.71;40.74
62164;BME280;48149;51.132;7.178;2023-02-01T12:06:41;98879.81;;;18.52;39.29
62164;BME280;48149;51.132;7.178;2023-02-01T12:14:52;98878.88;;;18.78;41.65
62164;BME280;48149;51.132;7.178;2023-02-01T12:22:49;98865.31;;;17.86;46.24
62164;BME280;48149;51.132;7.178;2023-02-01T12:33:00;98863.72;;;17.85;43.45
62164;BME280;48149;51.132;7.178;2023-02-01T12:38:12;98866.53;;;19.34;41.44
62164;BME280;48149;51.132;7.178;2023-02-01T12:43:15;98865.50;;;18.53;41.89
62164;BME280;48149;51.132;7.178;2023-02-01T12:45:52;98878.09;;;18.41;42.27
62164;BME280;48149;51.132;7.178;2023-02-01T12:48:33;98863.28;;;18.40;42.32
62164;BME280;48149;51.132;7.178;2023-02-01T12:51:01;98860.09;;;19.10;40.67
62164;BME280;48149;51.132;7.178;2023-02-01T12:53:30;98847.94;;;17.63;44.23
62164;BME280;48149;51.132;7.178;2023-02-01T12:56:00;98837.25;;;16.99;46.65
62164;BME280;48149;51.132;7.178;2023-02-01T12:58:27;98832.81;;;17.32;45.39
62164;BME280;48149;51.132;7.178;2023-02-01T13:01:02;98831.41;;;18.25;43.77
62164;BME280;48149;51.132;7.178;2023-02-01T13:06:05;98834.63;;;18.37;43.01
62164;BME280;48149;51.132;7.178;2023-02-01T13:11:24;98835.31;;;16.68;45.76
62164;BME280;48149;51.132;7.178;2023-02-01T13:16:30;98814.41;;;17.79;41.54
62164;BME280;48149;51.132;7.178;2023-02-01T13:18:59;98823.75;;;17.86;42.65
62164;BME280;48149;51.132;7.178;2023-02-01T13:21:26;98811.25;;;20.27;40.00
62164;BME280;48149;51.132;7.178;2023-02-01T13:23:53;98824.91;;;19.40;40.56
62164;BME280;48149;51.132;7.178;2023-02-01T13:26:18;98822.72;;;19.06;40.75
62164;BME280;48149;51.132;7.178;2023-02-01T13:29:03;98815.00;;;18.28;40.89
62164;BME280;48149;51.132;7.178;2023-02-01T13:41:42;98797.34;;;17.96;41.97
62164;BME280;48149;51.132;7.178;2023-02-01T13:44:17;98809.56;;;18.59;41.46
62164;BME280;48149;51.132;7.178;2023-02-01T13:46:46;98808.25;;;18.62;41.12
62164;BME280;48149;51.132;7.178;2023-02-01T13:49:22;98802.19;;;18.82;41.95
62164;BME280;48149;51.132;7.178;2023-02-01T13:51:49;98817.75;;;18.06;43.14
62164;BME280;48149;51.132;7.178;2023-02-01T13:59:54;98814.38;;;18.73;41.95
62164;BME280;48149;51.132;7.178;2023-02-01T14:08:02;98815.59;;;18.45;44.18
62164;BME280;48149;51.132;7.178;2023-02-01T14:13:26;98812.56;;;18.83;44.01
62164;BME280;48149;51.132;7.178;2023-02-01T14:16:14;98825.84;;;17.21;46.40
62164;BME280;48149;51.132;7.178;2023-02-01T14:23:40;98826.34;;;18.28;43.18
62164;BME280;48149;51.132;7.178;2023-02-01T14:26:07;98851.53;;;17.52;43.04
62164;BME280;48149;51.132;7.178;2023-02-01T14:28:34;98816.03;;;18.84;40.66
62164;BME280;48149;51.132;7.178;2023-02-01T14:31:00;98824.25;;;18.92;42.87
62164;BME280;48149;51.132;7.178;2023-02-01T14:33:26;98833.00;;;20.39;39.64
62164;BME280;48149;51.132;7.178;2023-02-01T14:35:57;98840.84;;;18.10;42.94
62164;BME280;48149;51.132;7.178;2023-02-01T14:38:24;98833.53;;;17.54;43.25
62164;BME280;48149;51.132;7.178;2023-02-01T14:40:49;98833.84;;;19.03;41.66
62164;BME280;48149;51.132;7.178;2023-02-01T14:43:14;98833.34;;;19.37;39.94
62164;BME280;48149;51.132;7.178;2023-02-01T14:58:19;98842.88;;;18.45;41.75
62164;BME280;48149;51.132;7.178;2023-02-01T15:00:56;98827.22;;;18.44;40.92
62164;BME280;48149;51.132;7.178;2023-02-01T15:05:50;98831.22;;;17.04;42.95
62164;BME280;48149;51.132;7.178;2023-02-01T15:08:21;98835.91;;;20.53;39.54
62164;BME280;48149;51.132;7.178;2023-02-01T15:10:48;98842.06;;;19.02;40.55
62164;BME280;48149;51.132;7.178;2023-02-01T15:13:22;98839.97;;;20.05;39.43
62164;BME280;48149;51.132;7.178;2023-02-01T15:18:32;98852.69;;;19.12;41.15
62164;BME280;48149;51.132;7.178;2023-02-01T15:20:58;98861.41;;;18.97;39.68
62164;BME280;48149;51.132;7.178;2023-02-01T15:23:23;98849.81;;;19.39;40.03
62164;BME280;48149;51.132;7.178;2023-02-01T15:25:51;98847.47;;;19.62;40.25
62164;BME280;48149;51.132;7.178;2023-02-01T15:28:17;98853.59;;;19.53;39.99
62164;BME280;48149;51.132;7.178;2023-02-01T15:33:17;98854.63;;;19.52;41.43